Time;durP1;ratioP1;P1;durP2;ratioP2;P2;SDS_P1;SDS_P2;PMS_P1;PMS_P2;Temp;Humidity;BMP_temperature;BMP_pressure;BME280_temperature;BME280_humidity;BME280_pressure;Samples;Min_cycle;Max_cycle;Signal;HPM_P1;HPM_P2
2022/07/18 00:01:40;;;;;;;;;9.67;9.33;;;;;27.66;26.05;101730.25;4985229;27;45805;-71
2022/07/18 00:04:05;;;;;;;;;6.33;6.00;;;;;27.63;26.60;101734.94;4973049;27;45523;-71
2022/07/18 00:06:31;;;;;;;;;9.33;6.00;;;;;27.45;26.92;101717.94;4971992;28;45478;-70
2022/07/18 00:09:05;;;;;;;;;5.00;5.00;;;;;27.51;26.21;101712.25;4989676;27;45516;-73
2022/07/18 00:11:34;;;;;;;;;6.33;6.33;;;;;27.54;26.51;101735.44;4970591;27;45512;-71
2022/07/18 00:13:59;;;;;;;;;6.33;5.00;;;;;27.47;26.90;101725.00;4981737;27;45374;-72
2022/07/18 00:16:25;;;;;;;;;5.33;5.33;;;;;27.28;27.35;101706.25;4982526;27;45324;-72
2022/07/18 00:18:51;;;;;;;;;6.00;6.00;;;;;27.39;27.24;101727.22;4988184;27;45485;-70
2022/07/18 00:21:17;;;;;;;;;3.25;3.25;;;;;27.42;26.54;101721.69;4987943;27;45788;-73
2022/07/18 00:23:43;;;;;;;;;5.67;5.00;;;;;27.41;26.71;101721.78;4976485;27;45577;-71
2022/07/18 00:26:12;;;;;;;;;3.75;3.75;;;;;27.41;26.67;101727.16;4990179;27;45750;-71
2022/07/18 00:28:38;;;;;;;;;5.50;4.00;;;;;27.37;26.84;101722.88;4972468;27;45378;-71
2022/07/18 00:31:03;;;;;;;;;5.00;5.00;;;;;27.38;27.15;101724.59;4971330;27;45510;-73
2022/07/18 00:33:34;;;;;;;;;4.33;4.33;;;;;27.32;27.11;101716.88;4976208;27;45422;-69
2022/07/18 00:36:00;;;;;;;;;4.00;4.00;;;;;27.04;27.38;101673.44;4979608;27;45548;-69
2022/07/18 00:38:25;;;;;;;;;5.00;4.25;;;;;27.29;26.75;101723.31;4977065;27;45445;-70
2022/07/18 00:40:51;;;;;;;;;4.00;4.00;;;;;27.28;27.42;101717.03;4971346;27;45572;-70
2022/07/18 00:43:21;;;;;;;;;3.50;3.50;;;;;27.29;27.12;101734.06;4975218;27;46144;-70
2022/07/18 00:45:48;;;;;;;;;4.50;3.75;;;;;27.32;27.25;101727.66;4983314;27;45512;-71
2022/07/18 00:48:14;;;;;;;;;3.50;3.50;;;;;27.32;27.52;101720.44;4971574;27;45513;-68
2022/07/18 00:50:41;;;;;;;;;4.50;4.00;;;;;27.32;28.00;101719.56;4992918;27;45564;-71
2022/07/18 00:53:10;;;;;;;;;3.00;3.00;;;;;27.25;27.88;101716.34;4990832;27;45410;-72
2022/07/18 00:55:41;;;;;;;;;4.00;4.00;;;;;27.32;27.46;101716.88;4973211;27;45436;-70
2022/07/18 00:58:21;;;;;;;;;3.33;3.33;;;;;27.15;27.40;101688.16;4991431;27;45544;-68
2022/07/18 01:03:34;;;;;;;;;5.00;3.00;;;;;27.13;27.82;101703.50;4992551;27;45629;-71
2022/07/18 09:42:17;;;;;;;;;7.75;7.75;;;;;29.78;27.06;101606.34;5054079;28;45979;-72
2022/07/18 09:44:56;;;;;;;;;9.75;8.00;;;;;30.03;26.46;101616.41;5050954;28;45460;-70
2022/07/18 09:47:24;;;;;;;;;9.50;8.00;;;;;30.29;26.22;101608.44;5038960;28;45486;-70
2022/07/18 09:49:50;;;;;;;;;9.00;9.00;;;;;30.56;26.17;101613.78;5051053;28;45481;-70
2022/07/18 09:52:16;;;;;;;;;9.50;9.00;;;;;30.75;26.01;101606.16;5045637;28;45990;-71
2022/07/18 09:54:43;;;;;;;;;10.00;9.75;;;;;30.90;25.89;101598.84;5047238;28;45623;-70
2022/07/18 09:57:22;;;;;;;;;9.00;8.25;;;;;31.10;25.03;101596.56;5049117;28;46624;-71
2022/07/18 09:59:49;;;;;;;;;10.75;8.75;;;;;31.31;25.12;101605.00;5051931;28;45362;-68
2022/07/18 10:02:15;;;;;;;;;9.75;8.50;;;;;31.46;25.34;101602.09;5054913;28;45848;-72
2022/07/18 10:04:40;;;;;;;;;10.00;8.50;;;;;31.63;25.28;101597.25;5052938;28;45530;-71
2022/07/18 10:07:06;;;;;;;;;10.75;8.00;;;;;31.85;24.43;101599.25;5045203;28;45465;-70
2022/07/18 10:09:33;;;;;;;;;7.00;7.00;;;;;31.99;24.70;101601.81;5051529;28;45462;-70
2022/07/18 10:12:00;;;;;;;;;8.50;7.00;;;;;32.14;24.12;101601.66;5048884;28;46464;-69
2022/07/18 10:14:27;;;;;;;;;9.75;8.75;;;;;32.16;23.61;101591.56;5051814;28;45348;-71
2022/07/18 10:16:54;;;;;;;;;5.75;5.75;;;;;32.26;23.32;101585.31;5050218;28;45589;-70
2022/07/18 10:19:20;;;;;;;;;7.00;6.25;;;;;32.42;24.22;101590.44;5050728;28;45631;-70
2022/07/18 10:21:48;;;;;;;;;7.75;6.25;;;;;32.55;23.69;101586.78;5049674;28;46481;-70
2022/07/18 10:24:17;;;;;;;;;9.00;8.50;;;;;32.49;23.21;101561.00;5049585;28;45394;-69
2022/07/18 10:26:43;;;;;;;;;8.25;8.25;;;;;32.50;23.41;101551.91;5049084;28;45582;-71
2022/07/18 10:29:13;;;;;;;;;10.00;8.50;;;;;32.69;23.32;101583.88;5061509;28;45555;-70
2022/07/18 10:31:58;;;;;;;;;8.00;6.00;;;;;32.81;23.35;101577.47;5044799;28;47653;-72
2022/07/18 10:34:30;;;;;;;;;11.00;9.60;;;;;32.95;22.68;101576.38;5049351;28;45558;-71
2022/07/18 10:37:00;;;;;;;;;11.00;9.25;;;;;33.03;23.23;101575.75;5049589;28;45490;-73
2022/07/18 10:39:34;;;;;;;;;8.25;8.25;;;;;33.07;22.28;101574.56;5049750;28;45575;-71
2022/07/18 10:42:03;;;;;;;;;8.00;8.00;;;;;33.10;22.17;101569.78;5066973;28;45970;-68
2022/07/18 10:44:31;;;;;;;;;9.20;8.80;;;;;33.17;22.47;101572.84;5070188;28;45583;-72
2022/07/18 10:47:06;;;;;;;;;8.00;7.75;;;;;33.34;22.65;101569.63;5070688;28;45319;-71
2022/07/18 10:49:52;;;;;;;;;9.00;7.25;;;;;33.41;22.28;101569.13;5055943;28;45332;-71
2022/07/18 10:52:33;;;;;;;;;11.00;9.25;;;;;33.45;22.55;101567.88;5063075;28;45517;-71
2022/07/18 10:55:05;;;;;;;;;9.20;9.20;;;;;33.62;21.43;101570.09;5058355;28;45355;-72
2022/07/18 10:57:37;;;;;;;;;8.00;8.00;;;;;33.74;21.27;101573.66;5057286;28;45328;-72
2022/07/18 11:00:23;;;;;;;;;9.50;9.50;;;;;33.85;21.42;101575.47;5057093;28;45493;-71
2022/07/18 11:03:01;;;;;;;;;9.00;9.00;;;;;33.89;21.12;101566.94;5057091;28;46150;-71
2022/07/18 11:05:26;;;;;;;;;7.60;7.00;;;;;33.96;21.26;101568.16;5056298;28;45462;-69
2022/07/18 11:07:58;;;;;;;;;8.25;6.50;;;;;34.10;20.88;101558.88;5056239;28;45557;-73
2022/07/18 11:10:43;;;;;;;;;9.50;9.25;;;;;34.24;20.80;101567.69;5056576;28;45586;-71
2022/07/18 11:13:31;;;;;;;;;8.00;8.00;;;;;34.28;20.82;101556.41;5055896;28;46237;-72
2022/07/18 11:16:14;;;;;;;;;8.40;7.60;;;;;34.36;20.53;101562.09;5056409;28;45394;-70
2022/07/18 11:18:39;;;;;;;;;6.40;6.40;;;;;34.48;20.03;101551.13;5056273;28;45532;-71
2022/07/18 11:21:19;;;;;;;;;9.00;7.25;;;;;34.65;20.09;101549.72;5056130;28;45500;-70
2022/07/18 11:23:48;;;;;;;;;7.50;6.25;;;;;34.63;20.55;101531.63;5055984;28;46437;-71
2022/07/18 11:26:19;;;;;;;;;9.40;8.40;;;;;34.80;19.92;101543.75;5058254;28;45407;-70
2022/07/18 11:28:46;;;;;;;;;7.00;6.80;;;;;34.57;19.51;101485.91;5056564;28;45773;-71
2022/07/18 11:31:12;;;;;;;;;7.25;7.25;;;;;35.02;19.73;101530.97;5056472;28;45380;-73
2022/07/18 11:33:41;;;;;;;;;9.50;8.00;;;;;35.00;19.81;101530.22;5038129;28;45679;-72
2022/07/18 11:36:17;;;;;;;;;8.00;8.00;;;;;35.13;19.33;101535.50;5057939;28;45481;-71
2022/07/18 11:38:55;;;;;;;;;9.00;9.00;;;;;35.17;19.47;101529.63;5055206;28;45531;-72
2022/07/18 11:41:21;;;;;;;;;8.00;7.25;;;;;35.27;19.11;101545.16;5037088;28;45414;-71
2022/07/18 11:43:49;;;;;;;;;7.00;7.00;;;;;35.25;18.73;101534.38;5054946;28;46643;-70
2022/07/18 11:46:17;;;;;;;;;7.00;7.00;;;;;35.27;18.50;101535.09;5056489;28;45376;-73
2022/07/18 11:48:48;;;;;;;;;6.20;6.20;;;;;35.40;18.78;101527.53;5058626;28;45434;-71
2022/07/18 11:51:20;;;;;;;;;7.25;7.25;;;;;35.50;17.59;101524.84;5039362;28;45355;-70
2022/07/18 11:53:50;;;;;;;;;5.00;5.00;;;;;35.51;17.59;101523.84;5055845;28;45770;-71
2022/07/18 11:56:17;;;;;;;;;5.00;5.00;;;;;35.65;17.73;101522.59;5055252;28;45451;-72
2022/07/18 11:58:45;;;;;;;;;4.60;4.40;;;;;35.74;17.78;101519.03;5056219;28;45545;-72
2022/07/18 12:01:12;;;;;;;;;6.00;6.00;;;;;35.68;17.02;101520.44;5055684;28;45727;-71
2022/07/18 12:03:43;;;;;;;;;5.80;5.00;;;;;35.85;17.58;101520.72;5054171;28;45749;-71
2022/07/18 12:06:23;;;;;;;;;6.00;6.00;;;;;35.82;17.31;101513.72;5058205;28;45320;-71
2022/07/18 12:08:56;;;;;;;;;5.40;5.40;;;;;35.90;17.38;101518.44;5058660;28;45367;-71
2022/07/18 12:11:36;;;;;;;;;5.00;3.80;;;;;36.02;17.18;101510.97;5054944;28;45366;-71
2022/07/18 12:14:08;;;;;;;;;4.80;4.80;;;;;36.18;17.05;101507.69;5057617;28;45389;-71
2022/07/18 12:16:39;;;;;;;;;4.80;4.80;;;;;36.33;16.68;101497.19;5059372;28;45165;-71
2022/07/18 12:19:30;;;;;;;;;6.20;5.00;;;;;36.30;15.84;101503.78;5059101;28;45236;-70
2022/07/18 12:22:04;;;;;;;;;5.60;5.60;;;;;36.27;16.75;101506.81;5037295;28;45452;-72
2022/07/18 12:24:32;;;;;;;;;6.20;6.00;;;;;36.25;16.43;101498.78;5055890;28;45434;-70
2022/07/18 12:27:35;;;;;;;;;3.80;3.80;;;;;36.45;16.29;101496.00;5056285;28;45494;-71
2022/07/18 12:30:17;;;;;;;;;5.20;5.20;;;;;36.51;16.21;101487.22;5056040;28;45363;-71
2022/07/18 12:32:51;;;;;;;;;4.00;4.00;;;;;36.61;16.15;101493.53;5055858;28;45782;-72
2022/07/18 12:35:24;;;;;;;;;5.00;4.60;;;;;36.61;15.20;101496.28;5055347;28;45537;-71
2022/07/18 12:37:58;;;;;;;;;7.00;5.00;;;;;36.45;15.48;101468.72;5062108;28;45263;-72
2022/07/18 12:40:26;;;;;;;;;4.80;3.60;;;;;36.65;16.39;101462.22;5064464;28;44786;-72
2022/07/18 12:43:03;;;;;;;;;5.40;5.40;;;;;36.94;15.92;101480.34;5064903;28;45282;-72
2022/07/18 12:45:29;;;;;;;;;6.80;6.80;;;;;37.01;15.85;101472.41;5061121;28;45573;-74
2022/07/18 12:47:55;;;;;;;;;5.50;5.50;;;;;37.04;16.11;101470.25;5060021;28;45554;-70
2022/07/18 12:50:20;;;;;;;;;5.75;5.75;;;;;37.14;16.31;101476.53;5059924;28;45305;-71
2022/07/18 12:52:46;;;;;;;;;5.75;5.75;;;;;37.18;15.78;101474.34;5060305;28;45544;-71
2022/07/18 12:55:12;;;;;;;;;5.00;5.00;;;;;37.21;15.66;101470.44;5059054;28;45441;-70
2022/07/18 12:57:37;;;;;;;;;5.25;5.25;;;;;37.18;15.02;101460.69;5058038;28;45599;-71
2022/07/18 13:00:04;;;;;;;;;7.00;6.00;;;;;37.20;15.11;101472.31;5057723;28;45499;-70
2022/07/18 13:02:29;;;;;;;;;3.80;3.80;;;;;37.28;14.51;101471.53;5055357;28;45438;-69
2022/07/18 13:04:55;;;;;;;;;4.00;4.00;;;;;37.23;14.55;101461.09;5036881;28;48222;-71
2022/07/18 13:07:21;;;;;;;;;4.25;4.25;;;;;37.33;15.18;101467.34;5056692;28;45684;-70
2022/07/18 13:09:46;;;;;;;;;3.75;3.75;;;;;37.38;15.10;101455.97;5055517;28;45315;-74
2022/07/18 13:12:12;;;;;;;;;4.25;4.25;;;;;37.59;14.68;101460.28;5056553;28;45403;-72
2022/07/18 13:14:37;;;;;;;;;4.75;3.50;;;;;37.68;15.09;101453.88;5054958;28;45329;-71
2022/07/18 13:17:03;;;;;;;;;5.25;5.25;;;;;37.77;15.29;101458.41;5055046;28;45379;-72
2022/07/18 13:19:29;;;;;;;;;5.75;5.75;;;;;37.73;14.59;101448.78;5054159;28;45317;-71
2022/07/18 13:21:58;;;;;;;;;5.40;5.40;;;;;37.73;14.74;101455.13;5054230;28;45399;-68
2022/07/18 13:24:23;;;;;;;;;4.60;4.60;;;;;37.80;14.57;101447.13;5054035;28;45870;-71
2022/07/18 13:26:49;;;;;;;;;6.00;4.50;;;;;37.77;14.92;101448.31;5055932;28;45388;-70
2022/07/18 13:29:15;;;;;;;;;6.00;4.75;;;;;37.81;14.79;101448.88;5055143;28;45482;-69
2022/07/18 13:31:41;;;;;;;;;4.50;4.50;;;;;37.80;14.05;101438.94;5053399;28;45486;-69
2022/07/18 13:34:07;;;;;;;;;3.75;3.75;;;;;37.93;14.49;101446.75;5035869;28;46621;-70
2022/07/18 13:36:35;;;;;;;;;6.50;6.50;;;;;37.80;14.82;101397.94;5056018;28;45531;-71
2022/07/18 13:39:01;;;;;;;;;7.20;6.40;;;;;37.93;14.87;101420.25;5055538;28;45340;-67
2022/07/18 13:41:28;;;;;;;;;5.00;5.00;;;;;38.02;14.49;101420.38;5053865;28;45793;-71
2022/07/18 13:43:54;;;;;;;;;4.80;4.00;;;;;38.03;14.42;101425.66;5053568;28;45403;-71
2022/07/18 13:46:22;;;;;;;;;6.50;6.25;;;;;38.07;14.56;101424.31;5053575;28;45395;-71
2022/07/18 13:48:49;;;;;;;;;4.60;4.60;;;;;38.15;14.16;101415.31;5054324;28;45506;-71
2022/07/18 13:51:16;;;;;;;;;5.40;5.40;;;;;38.23;14.90;101426.31;5056198;28;45528;-69
2022/07/18 13:53:41;;;;;;;;;7.00;5.40;;;;;38.21;14.22;101417.41;5035375;28;46654;-71
2022/07/18 13:56:18;;;;;;;;;5.50;5.00;;;;;38.22;15.02;101394.50;5053125;28;45462;-72
2022/07/18 13:58:44;;;;;;;;;4.40;4.40;;;;;38.35;14.28;101394.91;5052442;28;45454;-71
2022/07/18 14:01:12;;;;;;;;;6.50;5.00;;;;;38.24;14.72;101364.25;5054334;28;45504;-70
2022/07/18 14:03:38;;;;;;;;;6.80;6.80;;;;;38.47;14.31;101400.16;5053298;28;45678;-71
2022/07/18 14:06:04;;;;;;;;;4.00;4.00;;;;;38.39;14.11;101393.56;5053426;28;45332;-72
2022/07/18 14:08:29;;;;;;;;;4.50;4.50;;;;;38.43;14.35;101395.97;5056023;28;45526;-70
2022/07/18 14:10:55;;;;;;;;;6.00;5.50;;;;;38.50;14.47;101386.13;5057645;28;45390;-71
2022/07/18 14:13:20;;;;;;;;;4.50;4.50;;;;;38.49;14.37;101381.66;5038855;28;46993;-69
2022/07/18 14:15:46;;;;;;;;;5.50;5.50;;;;;38.37;13.97;101372.84;5056862;28;45815;-70
2022/07/18 14:18:11;;;;;;;;;6.50;4.00;;;;;38.35;14.18;101385.84;5053351;28;45363;-71
2022/07/18 14:20:37;;;;;;;;;6.25;6.25;;;;;38.30;14.21;101382.72;5053717;28;45433;-70
2022/07/18 14:23:03;;;;;;;;;5.25;4.25;;;;;38.41;14.66;101379.72;5052948;28;45747;-72
2022/07/18 14:25:28;;;;;;;;;6.25;6.25;;;;;38.39;14.24;101377.16;5035184;28;45749;-73
2022/07/18 14:27:54;;;;;;;;;5.25;5.25;;;;;38.44;14.27;101379.38;5053500;28;45335;-70
2022/07/18 14:30:19;;;;;;;;;6.00;5.50;;;;;38.57;14.64;101373.50;5056344;28;45898;-73
2022/07/18 14:32:49;;;;;;;;;7.00;6.00;;;;;38.58;14.47;101356.88;5056342;28;46549;-70
2022/07/18 14:35:14;;;;;;;;;5.20;5.20;;;;;38.66;13.76;101372.50;5058204;28;45381;-72
2022/07/18 14:37:40;;;;;;;;;5.00;5.00;;;;;38.70;14.44;101365.66;5058486;28;45376;-72
2022/07/18 14:40:06;;;;;;;;;4.25;4.25;;;;;38.83;14.65;101367.09;5056142;28;45731;-72
2022/07/18 14:42:36;;;;;;;;;8.40;6.00;;;;;38.66;14.94;101323.25;5055398;28;46181;-71
2022/07/18 14:45:02;;;;;;;;;8.60;6.20;;;;;38.76;14.84;101329.41;5055998;28;45866;-74
2022/07/18 14:47:31;;;;;;;;;5.40;5.40;;;;;38.88;14.71;101337.31;5056443;28;45435;-70
2022/07/18 14:49:56;;;;;;;;;9.20;6.20;;;;;39.00;15.13;101352.44;5058985;28;45341;-72
2022/07/18 14:52:22;;;;;;;;;7.75;7.50;;;;;39.05;14.57;101354.66;5058174;28;45517;-70
2022/07/18 14:54:48;;;;;;;;;6.20;6.20;;;;;38.95;14.03;101350.19;5038947;28;45871;-70
2022/07/18 14:57:16;;;;;;;;;5.75;5.75;;;;;38.89;14.86;101355.44;5057396;28;45623;-70
2022/07/18 14:59:42;;;;;;;;;5.60;5.60;;;;;38.86;14.16;101348.44;5057299;28;45442;-72
2022/07/18 15:02:07;;;;;;;;;4.80;4.80;;;;;38.85;14.27;101348.56;5056369;28;46013;-71
2022/07/18 15:04:35;;;;;;;;;5.75;5.75;;;;;38.90;14.15;101336.13;5056848;28;45610;-70
2022/07/18 15:07:01;;;;;;;;;4.40;4.40;;;;;38.91;14.14;101339.72;5058111;28;45393;-70
2022/07/18 15:09:26;;;;;;;;;7.00;5.75;;;;;38.77;14.44;101320.16;5060963;28;45430;-70
2022/07/18 15:11:52;;;;;;;;;7.00;5.50;;;;;38.93;14.46;101334.97;5056198;28;45468;-71
2022/07/18 15:14:21;;;;;;;;;9.00;6.75;;;;;38.87;14.53;101319.16;5056669;28;45354;-72
2022/07/18 15:16:47;;;;;;;;;4.80;4.80;;;;;38.94;14.20;101333.91;5030034;28;45504;-70
2022/07/18 15:19:12;;;;;;;;;6.25;6.25;;;;;38.88;14.50;101312.66;5038395;28;45497;-70
2022/07/18 15:21:50;;;;;;;;;7.00;7.00;;;;;38.83;14.16;101312.31;5058584;28;45970;-71
2022/07/18 15:24:16;;;;;;;;;5.20;5.20;;;;;38.86;14.38;101323.78;5060111;28;45282;-69
2022/07/18 15:27:00;;;;;;;;;6.00;6.00;;;;;38.68;14.94;101287.47;5056120;28;45831;-70
2022/07/18 15:29:26;;;;;;;;;4.80;4.80;;;;;38.78;14.55;101296.41;5056794;28;45265;-69
2022/07/18 15:31:53;;;;;;;;;7.50;6.50;;;;;38.80;14.10;101303.41;5055043;28;46499;-71
2022/07/18 15:34:18;;;;;;;;;6.20;5.20;;;;;38.86;14.50;101306.50;5056893;28;45539;-71
2022/07/18 15:36:44;;;;;;;;;7.50;6.75;;;;;38.92;14.65;101314.09;5062581;28;45570;-69
2022/07/18 15:39:09;;;;;;;;;6.25;6.25;;;;;38.91;14.22;101307.72;5043909;28;45540;-71
2022/07/18 15:41:36;;;;;;;;;5.75;5.75;;;;;38.97;14.32;101296.13;5058124;28;46102;-71
2022/07/18 15:44:01;;;;;;;;;5.40;5.40;;;;;38.87;14.10;101280.81;5058389;28;45471;-71
2022/07/18 15:46:27;;;;;;;;;6.50;6.50;;;;;38.80;14.12;101289.72;5063133;28;45317;-70
2022/07/18 15:48:52;;;;;;;;;5.00;4.75;;;;;38.87;14.34;101289.03;5061727;28;45914;-70
2022/07/18 15:51:18;;;;;;;;;7.25;7.25;;;;;38.89;14.55;101285.09;5059491;28;45355;-69
2022/07/18 15:53:44;;;;;;;;;6.50;6.50;;;;;38.88;15.17;101286.13;5056222;28;45558;-70
2022/07/18 15:56:09;;;;;;;;;6.50;5.75;;;;;38.89;15.09;101279.63;5059988;28;45307;-70
2022/07/18 15:58:35;;;;;;;;;7.50;7.50;;;;;38.84;13.86;101289.38;5058271;28;45339;-72
2022/07/18 16:01:01;;;;;;;;;9.50;8.50;;;;;38.63;14.35;101260.59;5054796;28;45299;-72
2022/07/18 16:03:26;;;;;;;;;4.50;4.50;;;;;38.70;14.44;101279.94;5049349;28;45534;-70
2022/07/18 16:05:56;;;;;;;;;8.25;6.00;;;;;38.72;14.77;101284.22;5048621;28;45233;-70
2022/07/18 16:08:23;;;;;;;;;5.40;5.20;;;;;38.69;14.42;101272.78;5055875;28;45343;-71
2022/07/18 16:10:48;;;;;;;;;6.20;6.20;;;;;38.68;14.66;101265.56;5058341;28;45489;-70
2022/07/18 16:13:14;;;;;;;;;5.50;5.00;;;;;38.57;15.03;101256.66;5055343;28;45335;-71
2022/07/18 16:15:39;;;;;;;;;5.75;5.75;;;;;38.60;14.87;101264.53;5055665;28;45497;-69
2022/07/18 16:18:05;;;;;;;;;7.50;6.25;;;;;38.58;14.85;101265.72;5055498;28;45910;-70
2022/07/18 16:20:32;;;;;;;;;4.00;4.00;;;;;38.57;14.50;101266.75;5055015;28;45960;-70
2022/07/18 16:22:57;;;;;;;;;6.00;6.00;;;;;38.50;14.18;101261.09;5055107;28;45589;-70
2022/07/18 16:25:23;;;;;;;;;8.25;7.00;;;;;38.32;14.56;101236.53;5055166;28;45486;-70
2022/07/18 16:27:48;;;;;;;;;9.50;7.00;;;;;38.42;15.03;101265.66;5057124;28;45548;-70
2022/07/18 16:30:16;;;;;;;;;6.00;6.00;;;;;38.34;14.29;101242.72;5056197;28;46360;-70
2022/07/18 16:32:41;;;;;;;;;5.75;5.25;;;;;38.35;14.09;101235.38;5053685;28;45530;-69
2022/07/18 16:35:07;;;;;;;;;5.25;5.25;;;;;38.41;14.77;101242.91;5055070;28;45803;-69
2022/07/18 16:37:33;;;;;;;;;7.60;6.80;;;;;38.36;14.84;101229.72;5059342;28;45311;-69
2022/07/18 16:39:59;;;;;;;;;6.00;6.00;;;;;38.37;14.76;101236.94;5057534;28;46104;-71
2022/07/18 16:42:25;;;;;;;;;7.50;7.50;;;;;38.13;14.91;101217.69;5054702;28;45524;-70
2022/07/18 16:44:51;;;;;;;;;5.60;5.20;;;;;37.97;15.00;101196.59;5055702;28;45848;-69
2022/07/18 16:47:17;;;;;;;;;5.00;5.00;;;;;38.16;14.22;101240.09;5059319;28;45280;-71
2022/07/18 16:49:43;;;;;;;;;6.00;6.00;;;;;38.16;14.33;101239.25;5058404;28;45450;-70
2022/07/18 16:52:08;;;;;;;;;7.25;4.25;;;;;38.09;14.64;101232.75;5057718;28;45478;-70
2022/07/18 16:54:35;;;;;;;;;7.75;6.00;;;;;37.97;15.56;101213.84;5036758;28;45382;-71
2022/07/18 16:57:01;;;;;;;;;6.40;6.40;;;;;38.00;14.81;101220.91;5056683;28;45594;-73
2022/07/18 16:59:27;;;;;;;;;6.25;5.25;;;;;38.03;15.46;101227.91;5045270;28;45985;-71
2022/07/18 17:01:54;;;;;;;;;5.80;4.60;;;;;38.04;15.24;101229.63;5050319;28;45535;-72
2022/07/18 17:04:21;;;;;;;;;5.20;5.20;;;;;38.02;15.17;101226.22;5046703;28;45674;-70
2022/07/18 17:06:47;;;;;;;;;7.00;6.25;;;;;37.94;15.02;101227.88;5053911;28;45878;-71
2022/07/18 17:09:18;;;;;;;;;5.25;5.25;;;;;37.68;15.30;101180.56;5053839;28;45677;-72
2022/07/18 17:11:45;;;;;;;;;6.80;6.00;;;;;37.84;15.78;101212.59;5053145;28;45448;-70
2022/07/18 17:14:10;;;;;;;;;9.20;6.40;;;;;37.81;15.02;101212.94;5054463;28;45423;-69
2022/07/18 17:16:38;;;;;;;;;6.25;6.00;;;;;37.75;15.78;101215.31;5054114;28;45435;-71
2022/07/18 17:19:04;;;;;;;;;9.00;6.40;;;;;37.66;15.28;101212.66;5052019;28;45595;-70
2022/07/18 17:21:30;;;;;;;;;6.60;6.60;;;;;37.59;15.96;101208.88;5053893;28;45628;-68
2022/07/18 17:23:57;;;;;;;;;4.25;3.75;;;;;37.47;15.22;101202.78;5052421;28;45331;-71
2022/07/18 17:26:23;;;;;;;;;6.80;5.80;;;;;37.48;15.55;101201.78;5053667;28;45341;-68
2022/07/18 17:28:58;;;;;;;;;6.00;5.40;;;;;37.51;15.96;101218.69;5023887;28;46545;-72
2022/07/18 17:31:24;;;;;;;;;7.60;6.60;;;;;37.44;15.82;101200.38;5052636;28;45580;-70
2022/07/18 17:33:50;;;;;;;;;7.00;6.50;;;;;37.50;15.87;101211.53;5052797;28;45489;-71
2022/07/18 17:36:20;;;;;;;;;8.25;6.75;;;;;37.41;16.02;101204.31;5051108;28;45549;-71
2022/07/18 17:38:47;;;;;;;;;6.80;6.80;;;;;37.40;16.18;101213.53;5053075;28;45546;-69
2022/07/18 17:41:13;;;;;;;;;6.20;6.20;;;;;37.33;15.63;101209.72;5051427;28;45711;-70
2022/07/18 17:43:42;;;;;;;;;5.50;5.50;;;;;37.24;15.83;101216.16;5052149;28;45737;-69
2022/07/18 17:46:09;;;;;;;;;6.00;6.00;;;;;37.18;15.46;101206.69;5052180;28;45838;-73
2022/07/18 17:48:35;;;;;;;;;5.20;5.00;;;;;37.10;15.55;101204.78;5052880;28;46454;-69
2022/07/18 17:51:02;;;;;;;;;6.25;6.25;;;;;37.09;16.06;101205.81;5051555;28;45852;-71
2022/07/18 17:53:28;;;;;;;;;5.20;4.40;;;;;36.66;16.36;101155.59;5053514;28;45543;-70
2022/07/18 17:55:54;;;;;;;;;8.25;6.50;;;;;36.85;15.76;101191.91;5055509;28;45478;-66
2022/07/18 17:58:20;;;;;;;;;8.40;6.20;;;;;36.86;16.00;101199.94;5054777;28;45570;-69
2022/07/18 18:00:46;;;;;;;;;10.00;5.50;;;;;36.88;16.42;101210.72;5052712;28;45411;-73
2022/07/18 18:03:11;;;;;;;;;5.50;5.50;;;;;36.85;15.66;101205.56;5052934;28;45476;-72
2022/07/18 18:05:37;;;;;;;;;6.50;6.00;;;;;36.80;15.83;101205.16;5059967;28;45428;-70
2022/07/18 18:08:03;;;;;;;;;6.00;5.50;;;;;36.74;15.94;101203.94;5059294;28;46337;-70
2022/07/18 18:10:33;;;;;;;;;3.40;3.40;;;;;36.65;16.50;101199.41;5061461;28;45560;-70
2022/07/18 18:12:59;;;;;;;;;4.80;4.80;;;;;36.43;16.82;101179.72;5059537;28;45359;-69
2022/07/18 18:15:28;;;;;;;;;4.20;4.20;;;;;36.39;16.02;101170.13;5059933;28;45616;-68
2022/07/18 18:17:54;;;;;;;;;5.00;4.80;;;;;36.53;16.75;101201.47;5036169;28;46672;-69
2022/07/18 18:20:20;;;;;;;;;6.00;5.00;;;;;36.44;17.42;101208.72;5057454;28;45474;-67
2022/07/18 18:22:46;;;;;;;;;8.00;6.40;;;;;36.35;17.32;101208.78;5044968;28;45525;-66
2022/07/18 18:25:12;;;;;;;;;6.00;6.00;;;;;36.34;16.57;101201.63;5055095;28;45442;-70
2022/07/18 18:27:38;;;;;;;;;6.25;6.25;;;;;36.27;17.56;101202.22;5038949;28;46665;-68
2022/07/18 18:30:07;;;;;;;;;5.20;5.20;;;;;36.22;17.44;101195.53;5056589;28;45426;-69
2022/07/18 18:32:33;;;;;;;;;5.00;5.00;;;;;36.16;17.44;101205.16;5055629;28;45766;-70
2022/07/18 18:34:59;;;;;;;;;5.00;4.75;;;;;36.12;17.73;101197.44;5045848;28;45502;-69
2022/07/18 18:37:28;;;;;;;;;5.60;5.20;;;;;36.02;18.00;101192.00;5044265;28;45777;-67
2022/07/18 18:39:54;;;;;;;;;7.00;7.00;;;;;36.01;17.18;101209.41;5055386;28;45346;-71
2022/07/18 18:42:20;;;;;;;;;7.50;6.25;;;;;35.94;18.03;101191.94;5055454;28;45426;-70
2022/07/18 18:44:47;;;;;;;;;7.80;7.20;;;;;35.76;17.85;101173.66;5056244;28;45600;-70
2022/07/18 18:47:12;;;;;;;;;6.60;5.20;;;;;35.62;18.02;101160.53;5055905;28;45498;-69
2022/07/18 18:49:38;;;;;;;;;6.00;6.00;;;;;35.83;17.89;101209.31;5054414;28;45336;-71
2022/07/18 18:52:05;;;;;;;;;6.25;6.25;;;;;35.61;18.16;101169.69;5053309;28;45549;-74
2022/07/18 18:54:30;;;;;;;;;4.00;3.20;;;;;35.72;18.50;101196.75;5046619;28;45771;-69
2022/07/18 18:56:56;;;;;;;;;7.00;6.00;;;;;35.66;18.52;101200.06;5054645;28;45552;-70
2022/07/18 18:59:22;;;;;;;;;5.75;5.75;;;;;35.60;19.06;101195.22;5043068;28;46908;-72
2022/07/18 19:01:48;;;;;;;;;9.75;6.50;;;;;35.33;18.93;101166.03;5055942;28;45486;-70
2022/07/18 19:04:14;;;;;;;;;6.25;6.25;;;;;35.34;18.58;101171.34;5054938;28;45421;-71
2022/07/18 19:06:40;;;;;;;;;7.75;7.25;;;;;35.42;18.53;101190.50;5049459;28;47605;-69
2022/07/18 19:09:06;;;;;;;;;8.80;7.00;;;;;35.35;18.98;101188.53;5055455;28;45399;-70
2022/07/18 19:11:33;;;;;;;;;8.50;6.75;;;;;35.33;19.38;101194.13;5039974;28;45520;-69
2022/07/18 19:13:58;;;;;;;;;6.75;6.75;;;;;35.18;18.95;101176.53;5043748;28;45510;-73
2022/07/18 19:16:24;;;;;;;;;5.00;5.00;;;;;35.26;18.91;101193.00;5051669;28;46326;-71
2022/07/18 19:18:50;;;;;;;;;9.75;6.00;;;;;35.16;18.74;101175.84;5053104;28;45438;-71
2022/07/18 19:21:17;;;;;;;;;7.25;7.25;;;;;35.12;18.96;101180.72;5048294;28;45447;-73
2022/07/18 19:23:42;;;;;;;;;6.00;6.00;;;;;35.08;19.10;101172.97;5054712;28;46746;-72
2022/07/18 19:26:08;;;;;;;;;5.25;5.25;;;;;35.13;19.17;101184.31;5051288;28;46607;-71
2022/07/18 19:28:40;;;;;;;;;5.00;5.00;;;;;34.98;18.71;101167.53;5035278;28;45391;-72
2022/07/18 19:31:07;;;;;;;;;4.00;4.00;;;;;35.03;19.14;101178.84;5040589;28;45868;-75
2022/07/18 19:33:33;;;;;;;;;5.75;5.75;;;;;34.92;19.04;101174.41;5049910;28;45634;-68
2022/07/18 19:36:17;;;;;;;;;5.00;3.40;;;;;34.95;19.28;101190.44;5050488;28;45619;-70
2022/07/18 19:38:43;;;;;;;;;4.60;4.60;;;;;34.91;18.96;101190.91;5037742;28;45390;-75
2022/07/18 19:41:11;;;;;;;;;6.25;4.75;;;;;34.88;19.35;101197.47;5053848;28;46006;-69
2022/07/18 19:43:39;;;;;;;;;5.00;5.00;;;;;34.80;19.23;101186.44;5055748;28;45359;-68
2022/07/18 19:46:05;;;;;;;;;7.00;7.00;;;;;34.76;19.30;101185.84;5040564;28;45799;-69
2022/07/18 19:48:31;;;;;;;;;5.75;5.50;;;;;34.73;19.41;101196.19;5055226;28;45722;-69
2022/07/18 19:50:57;;;;;;;;;5.75;5.75;;;;;34.58;19.63;101165.81;5055522;28;45496;-70
2022/07/18 19:53:23;;;;;;;;;5.25;5.25;;;;;34.52;19.37;101169.94;5055165;28;45583;-69
2022/07/18 19:55:48;;;;;;;;;6.00;5.00;;;;;34.51;19.34;101179.13;5055182;28;45557;-69
2022/07/18 19:58:14;;;;;;;;;7.25;4.50;;;;;34.52;19.51;101183.53;5051206;28;45571;-68
2022/07/18 20:00:41;;;;;;;;;7.50;6.25;;;;;34.53;19.72;101190.72;5054581;28;45532;-70
2022/07/18 20:03:08;;;;;;;;;7.00;6.25;;;;;34.44;19.49;101179.84;5019051;28;45550;-68
2022/07/18 20:05:37;;;;;;;;;7.50;7.50;;;;;34.29;19.87;101163.03;5052288;28;46747;-69
2022/07/18 20:08:05;;;;;;;;;7.40;6.80;;;;;34.42;20.02;101193.56;5053102;28;45434;-71